Flight Track Log - Related Links

Times and Time Zones

All times are in EDT time to prevent confusion due to time zone crossing. See the ASQ4577 flight status page for this flight to view local times or setup timezone preferences in your user account.


Time Position Orientation Groundspeed Altitude Reporting Facility
EDT Latitude Longitude Course Direction KTS MPH feet Rate Location/Type
Tue 05:16:52 PM 32.9167 -97.0333 16° North 167 192 1,500  Level Dallas / Fort Worth TRACON
Tue 05:17:46 PM 32.9667 -97.0167 16° North 208 239 3,000 1,614 Climbing Dallas / Fort Worth TRACON
Tue 05:20:09 PM 33.1250 -97.0289 356° North 258 297 6,800 1,626 Climbing Fort Worth Center
Tue 05:21:09 PM 33.1981 -97.0386 354° North 279 321 8,500 1,750 Climbing Fort Worth Center
Tue 05:22:09 PM 33.2878 -97.0506 354° North 294 338 10,300 1,650 Climbing Fort Worth Center
Tue 05:23:09 PM 33.3778 -97.0603 355° North 315 362 11,800 1,350 Climbing Fort Worth Center
Tue 05:24:09 PM 33.4611 -97.0697 355° North 321 369 13,000 1,311 Climbing Fort Worth Center
Tue 05:25:08 PM 33.5678 -97.0819 355° North 339 390 14,400 1,311 Climbing Fort Worth Center
Tue 05:26:08 PM 33.6553 -97.0892 356° North 352 405 15,600 1,300 Climbing Fort Worth Center
Tue 05:27:08 PM 33.7703 -97.0986 356° North 364 419 17,000 1,200 Climbing Fort Worth Center
Tue 05:28:08 PM 33.8661 -97.1108 354° North 376 433 18,000 1,240 Climbing Fort Worth Center
Tue 05:29:09 PM 33.9706 -97.1206 356° North 376 433 19,500 1,388 Climbing Fort Worth Center
Tue 05:30:09 PM 34.0833 -97.1175 North 387 445 20,800 1,261 Climbing Fort Worth Center
Tue 05:31:08 PM 34.1708 -97.0797 20° North 387 445 22,000 1,350 Climbing Fort Worth Center
Tue 05:32:09 PM 34.3064 -97.0289 17° North 406 467 23,500 1,388 Climbing Fort Worth Center
Tue 05:33:09 PM 34.4189 -96.9831 19° North 417 480 24,800 1,300 Climbing Fort Worth Center
Tue 05:34:09 PM 34.5039 -96.8869 43° Northeast 413 475 26,100 1,250 Climbing Fort Worth Center
Tue 05:35:09 PM 34.5431 -96.7581 70° East 386 444 27,300 1,250 Climbing Fort Worth Center
Tue 05:36:09 PM 34.5819 -96.6317 69° East 386 444 28,600 1,250 Climbing Fort Worth Center
Tue 05:37:09 PM 34.6186 -96.5075 70° East 386 444 29,800 1,100 Climbing Fort Worth Center
Tue 05:38:09 PM 34.6533 -96.3861 71° East 386 444 30,800 1,000 Climbing Fort Worth Center
Tue 05:39:09 PM 34.6878 -96.2669 71° East 381 438 31,800 958 Climbing Fort Worth Center
Tue 05:40:08 PM 34.7261 -96.1478 69° East 381 438 32,700 950 Climbing Fort Worth Center
Tue 05:41:09 PM 34.7603 -96.0311 70° East 370 426 33,700 1,000 Climbing Fort Worth Center
Tue 05:42:08 PM 34.7944 -95.9142 70° East 365 420 34,700 650 Climbing Fort Worth Center
Tue 05:43:09 PM 34.8286 -95.7947 71° East 365 420 35,000 100 Climbing Fort Worth Center
Tue 05:45:08 PM 34.9033 -95.5503 69° East 376 433 35,000  Level Memphis Center
Tue 05:46:08 PM 34.9422 -95.4183 70° East 395 455 35,000  Level Memphis Center
Tue 05:47:08 PM 34.9814 -95.2764 71° East 417 480 35,000  Level Memphis Center
Tue 05:48:08 PM 35.0225 -95.1267 71° East 445 512 35,000  Level Memphis Center
Tue 05:49:08 PM 35.0658 -94.9769 70° East 458 527 35,000  Level Memphis Center
Tue 05:50:08 PM 35.1089 -94.8219 71° East 464 534 35,000  Level Memphis Center
Tue 05:51:08 PM 35.1653 -94.6419 69° East 496 571 35,000  Level Memphis Center
Tue 05:52:09 PM 35.2372 -94.4881 60° Northeast 508 585 35,000  Level Memphis Center
Tue 05:53:08 PM 35.3047 -94.3361 61° Northeast 513 590 35,000  Level Memphis Center
Tue 05:54:08 PM 35.3742 -94.1867 60° Northeast 506 582 35,000  Level Memphis Center
Tue 05:55:08 PM 35.4433 -94.0369 60° Northeast 506 582 35,000  Level Memphis Center
Tue 05:56:08 PM 35.5103 -93.8894 61° Northeast 501 577 35,000  Level Memphis Center
Tue 05:57:08 PM 35.5728 -93.7392 63° Northeast 496 571 35,000  Level Memphis Center
Tue 05:58:08 PM 35.6372 -93.5936 61° Northeast 491 565 35,000  Level Memphis Center
Tue 05:59:09 PM 35.6992 -93.4478 62° Northeast 486 559 35,000  Level Memphis Center
Tue 06:00:08 PM 35.7611 -93.3017 62° Northeast 486 559 35,000  Level Memphis Center
Tue 06:01:08 PM 35.8247 -93.1606 61° Northeast 480 552 35,000  Level Memphis Center
Tue 06:02:08 PM 35.8794 -93.0444 60° Northeast 474 545 35,000  Level Memphis Center
Tue 06:03:08 PM 35.9475 -92.8825 63° Northeast 474 545 35,000  Level Memphis Center
Tue 06:04:08 PM 36.0089 -92.7356 63° Northeast 474 545 35,000  Level Memphis Center
Tue 06:05:08 PM 36.0678 -92.5883 64° Northeast 474 545 35,000  Level Memphis Center
Tue 06:06:08 PM 36.1286 -92.4436 62° Northeast 474 545 35,000  Level Memphis Center
Tue 06:07:08 PM 36.1872 -92.3011 63° Northeast 468 539 35,000  Level Memphis Center
Tue 06:08:08 PM 36.2478 -92.1533 63° Northeast 468 539 35,000  Level Memphis Center
Tue 06:09:08 PM 36.3061 -92.0131 63° Northeast 463 533 35,000  Level Memphis Center
Tue 06:10:08 PM 36.3642 -91.8750 62° Northeast 453 521 35,000  Level Memphis Center
Tue 06:11:08 PM 36.4200 -91.7239 65° Northeast 447 514 35,000  Level Memphis Center
Tue 06:12:08 PM 36.4758 -91.5828 64° Northeast 447 514 35,000  Level Memphis Center
Tue 06:13:09 PM 36.5292 -91.4544 63° Northeast 447 514 35,000  Level Memphis Center
Tue 06:14:08 PM 36.5886 -91.3053 64° Northeast 453 521 35,000  Level Memphis Center
Tue 06:15:08 PM 36.6481 -91.1586 63° Northeast 465 535 35,000  Level Memphis Center
Tue 06:16:08 PM 36.7114 -91.0014 63° Northeast 460 529 35,000  Level Memphis Center
Tue 06:17:08 PM 36.7683 -90.8542 64° Northeast 460 529 35,000  Level Memphis Center
Tue 06:18:08 PM 36.8231 -90.7094 65° Northeast 460 529 35,000  Level Memphis Center
Tue 06:19:08 PM 36.8839 -90.5619 63° Northeast 460 529 35,000  Level Memphis Center
Tue 06:20:08 PM 36.9403 -90.4192 64° Northeast 460 529 35,000  Level Memphis Center
Tue 06:21:08 PM 36.9964 -90.2711 65° Northeast 460 529 35,000  Level Memphis Center
Tue 06:22:08 PM 37.0547 -90.1231 64° Northeast 460 529 35,000  Level Memphis Center
Tue 06:23:08 PM 37.1106 -89.9797 64° Northeast 460 529 35,000  Level Memphis Center
Tue 06:24:08 PM 37.1767 -89.8467 58° Northeast 460 529 35,000  Level Memphis Center
Tue 06:25:08 PM 37.2678 -89.7314 45° Northeast 456 525 35,000  Level Memphis Center
Tue 06:26:24 PM 37.3828 -89.5864 45° Northeast 467 537 35,000  Level Kansas City Center
Tue 06:27:26 PM 37.4714 -89.4644 48° Northeast 470 541 35,000  Level Kansas City Center
Tue 06:28:28 PM 37.5169 -89.3133 69° East 461 531 35,000  Level Kansas City Center
Tue 06:29:30 PM 37.5583 -89.1617 71° East 457 526 35,000  Level Kansas City Center
Tue 06:30:32 PM 37.6003 -89.0086 71° East 461 531 35,000  Level Kansas City Center
Tue 06:31:34 PM 37.6658 -88.8278 65° Northeast 471 542 35,000  Level Kansas City Center
Tue 06:32:36 PM 37.7492 -88.6947 52° Northeast 483 556 35,000  Level Kansas City Center
Tue 06:33:38 PM 37.8331 -88.5653 51° Northeast 479 551 35,000  Level Kansas City Center
Tue 06:34:40 PM 37.9108 -88.4269 54° Northeast 480 552 35,000  Level Kansas City Center
Tue 06:35:42 PM 37.9719 -88.2781 62° Northeast 478 550 35,000  Level Kansas City Center
Tue 06:36:44 PM 38.0339 -88.1308 62° Northeast 473 544 35,000  Level Kansas City Center
Tue 06:37:39 PM 38.0978 -87.9833 61° Northeast 475 547 35,000  Level Indianapolis Center
Tue 06:38:40 PM 38.1611 -87.8328 62° Northeast 480 552 35,000 -146 Level Indianapolis Center
Tue 06:39:42 PM 38.2247 -87.6831 62° Northeast 480 552 34,700 -1,065 Descending Indianapolis Center
Tue 06:40:44 PM 38.2889 -87.5294 62° Northeast 487 560 32,800 -1,887 Descending Indianapolis Center
Tue 06:41:46 PM 38.3547 -87.3742 62° Northeast 493 567 30,800 -1,645 Descending Indianapolis Center
Tue 06:42:48 PM 38.4206 -87.2175 62° Northeast 491 565 29,400 -1,597 Descending Indianapolis Center
Tue 06:43:50 PM 38.4847 -87.0589 63° Northeast 489 563 27,500 -1,171 Descending Indianapolis Center
Tue 06:44:51 PM 38.5508 -86.8994 62° Northeast 498 573 27,000 -244 Descending Indianapolis Center
Tue 06:45:53 PM 38.6139 -86.7444 62° Northeast 488 562 27,000  Level Indianapolis Center
Tue 06:46:55 PM 38.6772 -86.5894 62° Northeast 489 563 27,000  Level Indianapolis Center
Tue 06:47:57 PM 38.7544 -86.4019 62° Northeast 492 566 27,000  Level Indianapolis Center
Tue 06:48:58 PM 38.8178 -86.2439 63° Northeast 495 570 27,000  Level Indianapolis Center
Tue 06:50:00 PM 38.8817 -86.0847 63° Northeast 499 574 27,000  Level Indianapolis Center
Tue 06:51:02 PM 38.9383 -85.9425 63° Northeast 501 577 27,000  Level Indianapolis Center
Tue 06:52:04 PM 39.0133 -85.7517 63° Northeast 502 578 27,000  Level Indianapolis Center
Tue 06:53:05 PM 39.0758 -85.5933 63° Northeast 501 577 27,000  Level Indianapolis Center
Tue 06:54:07 PM 39.1381 -85.4356 63° Northeast 499 574 27,000  Level Indianapolis Center
Tue 06:55:09 PM 39.1992 -85.2778 63° Northeast 497 572 27,000  Level Indianapolis Center
Tue 06:56:11 PM 39.2606 -85.1203 63° Northeast 495 570 27,000  Level Indianapolis Center
Tue 06:57:12 PM 39.3214 -84.9614 64° Northeast 496 571 27,000  Level Indianapolis Center
Tue 06:58:14 PM 39.3950 -84.7706 63° Northeast 497 572 27,000  Level Indianapolis Center
Tue 06:59:16 PM 39.4575 -84.6092 63° Northeast 499 574 27,000  Level Indianapolis Center
Tue 07:00:18 PM 39.5183 -84.4475 64° Northeast 496 571 27,000  Level Indianapolis Center
Tue 07:01:19 PM 39.5800 -84.2850 64° Northeast 498 573 27,000  Level Indianapolis Center
Tue 07:02:21 PM 39.6411 -84.1219 64° Northeast 498 573 27,000 -48 Level Indianapolis Center
Tue 07:03:23 PM 39.7153 -83.9708 57° Northeast 494 568 26,900 -629 Descending Indianapolis Center
Tue 07:04:25 PM 39.8208 -83.8553 40° Northeast 489 563 25,700 -1,415 Descending Indianapolis Center
Tue 07:05:26 PM 39.9247 -83.7447 39° Northeast 476 548 24,000 -829 Descending Indianapolis Center
Tue 07:06:28 PM 40.0256 -83.6369 39° Northeast 460 529 24,000 -290 Level Indianapolis Center
Tue 07:07:30 PM 40.1269 -83.5261 40° Northeast 464 534 23,400 -1,268 Descending Indianapolis Center
Tue 07:08:31 PM 40.2258 -83.4178 40° Northeast 458 527 21,400 -2,098 Descending Indianapolis Center
Tue 07:09:33 PM 40.3311 -83.2833 44° Northeast 449 517 19,100 -1,887 Descending Indianapolis Center
Tue 07:10:35 PM 40.4161 -83.1739 44° Northeast 426 490 17,500 -1,742 Descending Indianapolis Center
Tue 07:11:37 PM 40.5003 -83.0661 44° Northeast 419 482 15,500 -1,902 Descending Indianapolis Center
Tue 07:12:38 PM 40.5864 -82.9567 44° Northeast 434 499 13,600 -1,854 Descending Indianapolis Center
Tue 07:13:40 PM 40.6661 -82.8547 44° Northeast 398 458 11,700 -1,694 Descending Indianapolis Center
Tue 07:14:42 PM 40.7433 -82.7528 45° Northeast 391 450 10,100 -823 Descending Indianapolis Center
Tue 07:15:44 PM 40.8208 -82.6506 45° Northeast 391 450 10,000 -59 Descending Indianapolis Center
Tue 07:16:24 PM 40.8750 -82.5822 44° Northeast 387 445 10,000  Level Cleveland Center
Tue 07:17:11 PM 40.9392 -82.4989 44° Northeast 390 449 10,000  Level Cleveland Center
Tue 07:18:12 PM 41.0200 -82.3886 46° Northeast 398 458 10,000  Level Cleveland Center
Tue 07:19:12 PM 41.1008 -82.2861 44° Northeast 395 455 10,000  Level Cleveland Center
Tue 07:20:13 PM 41.1733 -82.1858 46° Northeast 368 423 10,000 -639 Level Cleveland Center
Tue 07:21:14 PM 41.2369 -82.1044 44° Northeast 297 342 8,700 -1,417 Descending Cleveland Center
Tue 07:22:20 PM 41.2922 -82.0147 51° Northeast 297 342 7,000 -803 Descending Cleveland Center
Tue 07:23:21 PM 41.3269 -81.9075 67° East 287 330 7,000  Level Cleveland Center
Tue 07:24:09 PM 41.3486 -81.8333 69° East 292 336 7,000  Level Cleveland Center
Tue 07:24:24 PM 41.3592 -81.8086 60° Northeast 282 325 7,000 -984 Level Cleveland Center
Tue 07:25:10 PM 41.3786 -81.7453 68° East 250 288 6,000 -1,794 Descending Cleveland Center
Tue 07:26:11 PM 41.4294 -81.6658 50° Northeast 249 287 3,800 -1,475 Descending Cleveland Center
Tue 07:27:12 PM 41.4856 -81.6781 351° North 215 247 3,000 -492 Descending Cleveland Center
Tue 07:28:13 PM 41.4850 -81.7417 269° West 200 230 2,800 -545 Descending Cleveland Center
Tue 07:29:13 PM 41.4533 -81.7883 228° Southwest 159 183 1,900 -756 Descending Cleveland Center
Tue 07:30:20 PM 41.4258 -81.8319 230° Southwest 135 155 1,200 -627 Descending Cleveland Center

Login

Don't have an account? Register now (free) for customized features, flight alerts, and more!